sensor_id;sensor_type;location;lat;lon;timestamp;pressure;altitude;pressure_sealevel;temperature;humidity
38253;BME280;24785;52.372;20.672;2023-03-24T00:00:41;99964.03;;;11.28;97.82
38253;BME280;24785;52.372;20.672;2023-03-24T00:11:01;99972.59;;;11.30;97.90
38253;BME280;24785;52.372;20.672;2023-03-24T00:21:04;99972.25;;;11.37;95.76
38253;BME280;24785;52.372;20.672;2023-03-24T00:31:05;99974.47;;;11.11;96.93
38253;BME280;24785;52.372;20.672;2023-03-24T00:41:08;99960.84;;;10.84;97.48
38253;BME280;24785;52.372;20.672;2023-03-24T00:51:12;99978.09;;;10.20;99.91
38253;BME280;24785;52.372;20.672;2023-03-24T01:01:13;99981.00;;;9.45;100.00
38253;BME280;24785;52.372;20.672;2023-03-24T01:11:14;99975.72;;;8.75;100.00
38253;BME280;24785;52.372;20.672;2023-03-24T01:21:16;99968.84;;;8.18;100.00
38253;BME280;24785;52.372;20.672;2023-03-24T01:31:17;99971.78;;;7.66;100.00
38253;BME280;24785;52.372;20.672;2023-03-24T01:41:18;99945.53;;;7.12;100.00
38253;BME280;24785;52.372;20.672;2023-03-24T02:01:35;99920.94;;;6.32;100.00
38253;BME280;24785;52.372;20.672;2023-03-24T02:11:37;99925.19;;;5.96;100.00
38253;BME280;24785;52.372;20.672;2023-03-24T02:22:06;99926.97;;;5.59;100.00
38253;BME280;24785;52.372;20.672;2023-03-24T02:42:47;99927.63;;;5.17;100.00
38253;BME280;24785;52.372;20.672;2023-03-24T03:03:03;99935.16;;;4.77;100.00
38253;BME280;24785;52.372;20.672;2023-03-24T03:13:10;99935.00;;;4.66;100.00
38253;BME280;24785;52.372;20.672;2023-03-24T03:23:16;99917.91;;;4.57;100.00
38253;BME280;24785;52.372;20.672;2023-03-24T03:33:22;99935.59;;;4.30;100.00
38253;BME280;24785;52.372;20.672;2023-03-24T03:43:26;99914.69;;;4.33;100.00
38253;BME280;24785;52.372;20.672;2023-03-24T03:53:33;99914.94;;;4.32;100.00
38253;BME280;24785;52.372;20.672;2023-03-24T04:34:10;99872.44;;;5.51;100.00
38253;BME280;24785;52.372;20.672;2023-03-24T04:44:13;99869.88;;;5.93;100.00
38253;BME280;24785;52.372;20.672;2023-03-24T04:54:18;99863.09;;;5.81;100.00
38253;BME280;24785;52.372;20.672;2023-03-24T05:04:22;99862.63;;;5.89;100.00
38253;BME280;24785;52.372;20.672;2023-03-24T05:14:23;99853.78;;;6.15;100.00
38253;BME280;24785;52.372;20.672;2023-03-24T05:24:24;99850.97;;;6.42;100.00
38253;BME280;24785;52.372;20.672;2023-03-24T05:34:26;99844.78;;;6.99;100.00
38253;BME280;24785;52.372;20.672;2023-03-24T05:44:27;99835.78;;;7.61;100.00
38253;BME280;24785;52.372;20.672;2023-03-24T05:54:27;99838.38;;;8.12;100.00
38253;BME280;24785;52.372;20.672;2023-03-24T06:04:28;99836.88;;;8.60;100.00
38253;BME280;24785;52.372;20.672;2023-03-24T06:14:30;99838.38;;;9.26;100.00
38253;BME280;24785;52.372;20.672;2023-03-24T06:24:31;99838.34;;;9.89;100.00
38253;BME280;24785;52.372;20.672;2023-03-24T06:34:32;99839.22;;;10.37;100.00
38253;BME280;24785;52.372;20.672;2023-03-24T06:44:32;99838.63;;;10.64;100.00
38253;BME280;24785;52.372;20.672;2023-03-24T06:54:33;99838.13;;;10.81;100.00
38253;BME280;24785;52.372;20.672;2023-03-24T07:04:34;99841.47;;;11.10;100.00
38253;BME280;24785;52.372;20.672;2023-03-24T07:14:36;99838.28;;;11.27;100.00
38253;BME280;24785;52.372;20.672;2023-03-24T07:24:36;99859.00;;;11.73;100.00
38253;BME280;24785;52.372;20.672;2023-03-24T07:34:37;99846.09;;;12.07;100.00
38253;BME280;24785;52.372;20.672;2023-03-24T07:44:39;99843.13;;;12.36;100.00
38253;BME280;24785;52.372;20.672;2023-03-24T07:54:40;99823.91;;;12.43;100.00
38253;BME280;24785;52.372;20.672;2023-03-24T08:04:41;99810.22;;;12.67;100.00
38253;BME280;24785;52.372;20.672;2023-03-24T08:14:42;99803.53;;;13.14;100.00
38253;BME280;24785;52.372;20.672;2023-03-24T08:24:43;99767.75;;;13.58;100.00
38253;BME280;24785;52.372;20.672;2023-03-24T08:34:44;99747.09;;;13.76;100.00
38253;BME280;24785;52.372;20.672;2023-03-24T08:44:45;99736.16;;;14.21;100.00
38253;BME280;24785;52.372;20.672;2023-03-24T08:54:46;99711.56;;;14.13;100.00
38253;BME280;24785;52.372;20.672;2023-03-24T09:04:47;99703.22;;;14.41;100.00
38253;BME280;24785;52.372;20.672;2023-03-24T09:14:49;99683.22;;;15.02;94.94
38253;BME280;24785;52.372;20.672;2023-03-24T09:24:50;99680.81;;;15.56;88.00
38253;BME280;24785;52.372;20.672;2023-03-24T09:34:51;99661.00;;;15.90;85.72
38253;BME280;24785;52.372;20.672;2023-03-24T09:44:55;99655.75;;;16.35;81.32
38253;BME280;24785;52.372;20.672;2023-03-24T09:54:57;99635.91;;;16.31;79.57
38253;BME280;24785;52.372;20.672;2023-03-24T10:04:58;99625.22;;;16.35;80.06
38253;BME280;24785;52.372;20.672;2023-03-24T10:25:22;99594.34;;;16.90;77.76
38253;BME280;24785;52.372;20.672;2023-03-24T10:35:33;99584.25;;;17.60;72.59
38253;BME280;24785;52.372;20.672;2023-03-24T10:45:37;99584.09;;;17.93;69.34
38253;BME280;24785;52.372;20.672;2023-03-24T10:55:40;99586.34;;;17.91;68.31
38253;BME280;24785;52.372;20.672;2023-03-24T11:05:43;99587.97;;;17.43;68.28
38253;BME280;24785;52.372;20.672;2023-03-24T11:15:55;99579.31;;;16.68;71.91
38253;BME280;24785;52.372;20.672;2023-03-24T11:46:30;99547.22;;;16.91;74.75
38253;BME280;24785;52.372;20.672;2023-03-24T12:27:36;99456.13;;;19.06;65.52
38253;BME280;24785;52.372;20.672;2023-03-24T12:48:11;99453.97;;;19.66;60.69
38253;BME280;24785;52.372;20.672;2023-03-24T13:08:22;99405.25;;;19.58;59.15
38253;BME280;24785;52.372;20.672;2023-03-24T13:28:36;99373.69;;;19.34;56.71
38253;BME280;24785;52.372;20.672;2023-03-24T13:38:52;99378.97;;;19.27;58.16
38253;BME280;24785;52.372;20.672;2023-03-24T13:48:55;99359.25;;;19.30;57.25
38253;BME280;24785;52.372;20.672;2023-03-24T14:09:04;99350.09;;;19.38;55.80
38253;BME280;24785;52.372;20.672;2023-03-24T14:29:39;99312.66;;;19.08;56.69
38253;BME280;24785;52.372;20.672;2023-03-24T14:39:48;99316.75;;;18.83;57.00
38253;BME280;24785;52.372;20.672;2023-03-24T14:49:50;99311.81;;;18.38;58.30
38253;BME280;24785;52.372;20.672;2023-03-24T15:00:42;99295.75;;;18.13;59.12
38253;BME280;24785;52.372;20.672;2023-03-24T15:11:07;99288.25;;;18.07;59.18
38253;BME280;24785;52.372;20.672;2023-03-24T15:31:26;99272.19;;;17.54;61.14
38253;BME280;24785;52.372;20.672;2023-03-24T15:41:29;99274.03;;;17.50;61.28
38253;BME280;24785;52.372;20.672;2023-03-24T15:51:48;99258.13;;;17.21;63.07
38253;BME280;24785;52.372;20.672;2023-03-24T16:01:49;99263.81;;;17.16;64.25
38253;BME280;24785;52.372;20.672;2023-03-24T16:11:50;99313.28;;;13.69;100.00
38253;BME280;24785;52.372;20.672;2023-03-24T16:21:51;99316.44;;;12.67;100.00
38253;BME280;24785;52.372;20.672;2023-03-24T16:31:54;99283.25;;;12.63;100.00
38253;BME280;24785;52.372;20.672;2023-03-24T16:41:56;99268.06;;;12.58;100.00
38253;BME280;24785;52.372;20.672;2023-03-24T16:51:57;99240.72;;;12.48;100.00
38253;BME280;24785;52.372;20.672;2023-03-24T17:02:00;99238.03;;;12.48;100.00
38253;BME280;24785;52.372;20.672;2023-03-24T17:12:07;99228.22;;;12.52;100.00
38253;BME280;24785;52.372;20.672;2023-03-24T17:22:08;99195.81;;;12.57;100.00
38253;BME280;24785;52.372;20.672;2023-03-24T17:32:13;99181.88;;;12.29;100.00
38253;BME280;24785;52.372;20.672;2023-03-24T17:42:14;99165.75;;;12.12;100.00
38253;BME280;24785;52.372;20.672;2023-03-24T17:52:15;99128.16;;;12.03;100.00
38253;BME280;24785;52.372;20.672;2023-03-24T18:02:16;99117.09;;;11.96;100.00
38253;BME280;24785;52.372;20.672;2023-03-24T18:12:17;99099.72;;;11.93;100.00
38253;BME280;24785;52.372;20.672;2023-03-24T18:22:20;99083.13;;;11.91;100.00
38253;BME280;24785;52.372;20.672;2023-03-24T18:32:21;99090.09;;;11.84;100.00
38253;BME280;24785;52.372;20.672;2023-03-24T18:42:22;99097.75;;;11.77;100.00
38253;BME280;24785;52.372;20.672;2023-03-24T18:52:23;99094.59;;;11.75;100.00
38253;BME280;24785;52.372;20.672;2023-03-24T19:02:24;99088.75;;;11.73;100.00
38253;BME280;24785;52.372;20.672;2023-03-24T19:12:25;99087.78;;;11.68;100.00
38253;BME280;24785;52.372;20.672;2023-03-24T19:22:26;99086.22;;;11.67;100.00
38253;BME280;24785;52.372;20.672;2023-03-24T19:32:27;99078.63;;;11.61;100.00
38253;BME280;24785;52.372;20.672;2023-03-24T19:42:28;99081.28;;;11.52;100.00
38253;BME280;24785;52.372;20.672;2023-03-24T19:52:31;99062.13;;;11.28;100.00
38253;BME280;24785;52.372;20.672;2023-03-24T20:02:32;99148.56;;;11.73;100.00
38253;BME280;24785;52.372;20.672;2023-03-24T20:12:33;99174.63;;;11.73;100.00
38253;BME280;24785;52.372;20.672;2023-03-24T20:22:34;99228.94;;;11.39;100.00
38253;BME280;24785;52.372;20.672;2023-03-24T20:32:34;99311.94;;;11.21;100.00
38253;BME280;24785;52.372;20.672;2023-03-24T20:42:36;99373.03;;;10.88;100.00
38253;BME280;24785;52.372;20.672;2023-03-24T20:52:37;99405.06;;;10.93;100.00
38253;BME280;24785;52.372;20.672;2023-03-24T21:02:41;99432.94;;;11.06;100.00
38253;BME280;24785;52.372;20.672;2023-03-24T21:12:42;99417.78;;;10.74;100.00
38253;BME280;24785;52.372;20.672;2023-03-24T21:22:47;99440.91;;;10.56;100.00
38253;BME280;24785;52.372;20.672;2023-03-24T21:32:54;99424.25;;;10.13;100.00
38253;BME280;24785;52.372;20.672;2023-03-24T21:42:55;99407.72;;;9.92;100.00
38253;BME280;24785;52.372;20.672;2023-03-24T21:53:04;99410.66;;;9.77;100.00
38253;BME280;24785;52.372;20.672;2023-03-24T22:03:15;99444.88;;;9.42;100.00
38253;BME280;24785;52.372;20.672;2023-03-24T22:13:16;99434.03;;;8.72;100.00
38253;BME280;24785;52.372;20.672;2023-03-24T22:23:16;99445.66;;;8.29;100.00
38253;BME280;24785;52.372;20.672;2023-03-24T22:33:19;99448.91;;;8.55;100.00
38253;BME280;24785;52.372;20.672;2023-03-24T22:43:20;99451.97;;;8.91;100.00
38253;BME280;24785;52.372;20.672;2023-03-24T22:53:21;99458.56;;;8.74;100.00
38253;BME280;24785;52.372;20.672;2023-03-24T23:03:22;99455.50;;;8.86;100.00
38253;BME280;24785;52.372;20.672;2023-03-24T23:13:23;99439.09;;;8.93;100.00
38253;BME280;24785;52.372;20.672;2023-03-24T23:23:27;99446.59;;;9.14;100.00
38253;BME280;24785;52.372;20.672;2023-03-24T23:33:28;99490.03;;;9.44;100.00
38253;BME280;24785;52.372;20.672;2023-03-24T23:43:29;99497.94;;;9.54;100.00
38253;BME280;24785;52.372;20.672;2023-03-24T23:53:30;99489.75;;;9.45;100.00
